Time;durP1;ratioP1;P1;durP2;ratioP2;P2;SDS_P1;SDS_P2;PMS_P1;PMS_P2;Temp;Humidity;BMP_temperature;BMP_pressure;BME280_temperature;BME280_humidity;BME280_pressure;Samples;Min_cycle;Max_cycle;Signal;HPM_P1;HPM_P2
2021/12/08 00:01:06;;;;;;;1.95;1.85;;;;;;;1.29;72.74;93927.06;5096531;28;20213;-70
2021/12/08 00:03:33;;;;;;;2.30;2.10;;;;;;;1.30;72.59;93921.28;5096918;28;20190;-70
2021/12/08 00:06:00;;;;;;;2.22;2.13;;;;;;;1.28;72.84;93926.28;5097059;28;20207;-70
2021/12/08 00:08:29;;;;;;;2.10;1.80;;;;;;;1.26;72.70;93936.66;5096222;28;20204;-70
2021/12/08 00:13:43;;;;;;;2.20;2.10;;;;;;;1.29;72.83;93949.59;5095832;28;20236;-70
2021/12/08 00:16:12;;;;;;;2.10;2.00;;;;;;;1.29;73.10;93946.06;5096777;28;20195;-70
2021/12/08 00:18:44;;;;;;;2.38;2.28;;;;;;;1.31;72.33;93954.72;5096081;28;20200;-70
2021/12/08 00:21:11;;;;;;;2.10;2.00;;;;;;;1.24;72.20;93949.75;5096553;28;20215;-70
2021/12/08 00:23:38;;;;;;;2.25;2.10;;;;;;;1.27;72.41;93951.03;5096866;28;20189;-70
2021/12/08 00:26:05;;;;;;;2.25;2.15;;;;;;;1.28;72.40;93958.06;5096505;28;20185;-70
2021/12/08 00:28:32;;;;;;;2.10;2.00;;;;;;;1.29;72.14;93965.88;5096547;28;20189;-70
2021/12/08 00:31:03;;;;;;;2.33;2.22;;;;;;;1.26;72.19;93958.38;5096494;28;20190;-70
2021/12/08 00:33:31;;;;;;;2.42;2.33;;;;;;;1.26;72.47;93958.38;5094759;28;20210;-70
2021/12/08 00:36:00;;;;;;;2.53;2.33;;;;;;;1.27;72.19;93972.75;5096011;28;20196;-70
2021/12/08 00:38:27;;;;;;;2.35;2.25;;;;;;;1.29;72.20;93971.31;5096232;28;20677;-70
2021/12/08 00:40:55;;;;;;;2.40;2.30;;;;;;;1.25;71.76;93967.66;5096250;28;20212;-70
2021/12/08 00:43:23;;;;;;;2.80;2.60;;;;;;;1.26;72.24;93979.31;5095677;28;20291;-70
2021/12/08 00:45:50;;;;;;;2.30;2.20;;;;;;;1.21;71.83;93980.28;5096452;28;20231;-71
2021/12/08 00:48:18;;;;;;;2.35;2.25;;;;;;;1.24;72.13;93978.84;5096412;28;20185;-70
2021/12/08 00:50:45;;;;;;;2.10;2.00;;;;;;;1.24;71.78;93981.56;5095403;28;20211;-70
2021/12/08 00:53:12;;;;;;;2.50;2.40;;;;;;;1.24;71.81;93981.56;5095975;28;20231;-70
2021/12/08 00:55:39;;;;;;;2.47;2.38;;;;;;;1.20;71.84;93984.13;5095751;28;20192;-70
2021/12/08 00:58:07;;;;;;;2.42;2.33;;;;;;;1.25;71.89;93977.72;5095402;28;20206;-70
2021/12/08 01:00:36;;;;;;;2.65;2.45;;;;;;;1.26;71.26;93982.03;5096015;28;20211;-70
2021/12/08 01:03:03;;;;;;;2.50;2.30;;;;;;;1.25;71.68;93978.53;5096132;28;20195;-70
2021/12/08 01:05:34;;;;;;;2.60;2.40;;;;;;;1.24;70.75;93984.28;5095976;28;20180;-70
2021/12/08 01:08:01;;;;;;;2.25;2.13;;;;;;;1.22;70.96;93987.31;5095988;28;20180;-70
2021/12/08 01:10:29;;;;;;;2.35;2.25;;;;;;;1.24;71.37;93984.28;5095963;28;20181;-70
2021/12/08 01:12:57;;;;;;;2.80;2.60;;;;;;;1.26;71.48;93990.97;5095900;28;20207;-70
2021/12/08 01:15:26;;;;;;;3.28;3.08;;;;;;;1.25;70.99;93999.47;5094803;28;20203;-70
2021/12/08 01:17:52;;;;;;;3.05;2.85;;;;;;;1.26;71.23;93995.63;5095929;28;20185;-69
2021/12/08 01:20:20;;;;;;;3.05;2.85;;;;;;;1.26;70.95;93995.63;5095795;28;20223;-69
2021/12/08 01:22:48;;;;;;;3.03;2.83;;;;;;;1.20;71.08;93995.00;5095689;28;20185;-69
2021/12/08 01:25:15;;;;;;;3.30;3.10;;;;;;;1.23;71.58;93996.25;5095695;28;20192;-70
2021/12/08 01:27:42;;;;;;;3.17;2.97;;;;;;;1.23;71.18;93997.03;5094841;28;20193;-70
2021/12/08 01:30:10;;;;;;;3.17;2.97;;;;;;;1.20;71.74;93989.56;5095653;28;20180;-70
2021/12/08 01:32:38;;;;;;;3.63;3.40;;;;;;;1.23;71.56;93996.25;5095559;28;20184;-70
2021/12/08 01:35:07;;;;;;;3.20;3.00;;;;;;;1.24;71.73;93995.16;5095262;28;20207;-70
2021/12/08 01:37:34;;;;;;;3.40;3.20;;;;;;;1.25;71.55;93999.47;5094654;28;20211;-70
2021/12/08 01:40:05;;;;;;;3.47;3.28;;;;;;;1.26;71.73;93990.97;5095227;28;20215;-70
2021/12/08 01:42:36;;;;;;;3.55;3.35;;;;;;;1.24;71.70;93987.00;5095164;28;20598;-70
2021/12/08 01:47:49;;;;;;;3.47;3.28;;;;;;;1.24;71.12;93997.88;5094772;28;20199;-70
2021/12/08 01:50:16;;;;;;;4.63;4.22;;;;;;;1.25;71.69;93996.75;5094486;28;20620;-70
2021/12/08 01:52:43;;;;;;;4.25;3.95;;;;;;;1.25;72.20;94005.69;5094169;28;20235;-70
2021/12/08 01:55:13;;;;;;;4.55;4.25;;;;;;;1.24;71.69;94003.31;5094519;28;20199;-70
2021/12/08 01:57:40;;;;;;;3.90;3.67;;;;;;;1.21;71.13;94012.88;5095278;28;20188;-70
2021/12/08 02:00:11;;;;;;;4.50;4.20;;;;;;;1.22;71.69;94009.03;5095149;28;20204;-70
2021/12/08 02:02:38;;;;;;;4.32;4.03;;;;;;;1.25;71.56;94019.25;5095265;28;20271;-70
2021/12/08 02:05:06;;;;;;;4.50;4.20;;;;;;;1.21;71.46;94018.31;5095061;28;20184;-69
2021/12/08 02:07:33;;;;;;;4.80;4.50;;;;;;;1.24;71.14;94019.59;5094110;28;20198;-69
2021/12/08 02:10:00;;;;;;;5.32;4.93;;;;;;;1.26;71.21;94020.84;5094260;28;20204;-69
2021/12/08 02:12:30;;;;;;;5.38;4.97;;;;;;;1.26;71.40;94017.34;5095086;28;20200;-70
2021/12/08 02:14:59;;;;;;;5.45;5.05;;;;;;;1.24;71.36;94014.97;5095185;28;20192;-70
2021/12/08 02:17:26;;;;;;;5.53;5.13;;;;;;;1.23;71.71;94026.13;5094381;28;20204;-70
2021/12/08 02:19:53;;;;;;;5.65;5.25;;;;;;;1.25;71.32;94032.06;5094319;28;20286;-71
2021/12/08 02:22:21;;;;;;;5.85;5.45;;;;;;;1.27;71.19;94030.63;5095050;28;20185;-71
2021/12/08 02:24:48;;;;;;;6.05;5.65;;;;;;;1.27;71.24;94027.09;5093886;28;20199;-71
2021/12/08 02:27:15;;;;;;;6.43;5.82;;;;;;;1.29;70.95;94027.56;5094082;28;20192;-71
2021/12/08 02:29:48;;;;;;;6.25;5.75;;;;;;;1.31;70.80;94039.72;5094229;28;20204;-71
2021/12/08 02:32:33;;;;;;;6.25;5.75;;;;;;;1.28;71.12;94040.38;5094283;28;20211;-71
2021/12/08 02:48:53;;;;;;;8.60;7.90;;;;;;;1.26;71.96;94052.66;5094519;28;20264;-71
2021/12/08 02:51:20;;;;;;;9.10;8.30;;;;;;;1.25;71.68;94061.94;5094092;28;20500;-71
2021/12/08 02:53:50;;;;;;;9.65;8.85;;;;;;;1.24;72.15;94049.47;5094088;28;20232;-71
2021/12/08 02:56:17;;;;;;;9.32;8.63;;;;;;;1.27;71.83;94051.53;5094533;28;20192;-71
2021/12/08 02:58:45;;;;;;;10.30;9.40;;;;;;;1.24;72.02;94052.19;5097574;28;20200;-71
2021/12/08 03:01:13;;;;;;;9.27;8.48;;;;;;;1.21;71.99;94050.91;5098429;28;20205;-71
2021/12/08 03:03:40;;;;;;;9.23;8.43;;;;;;;1.19;72.17;94053.13;5098170;28;20188;-68
2021/12/08 03:06:07;;;;;;;9.80;8.98;;;;;;;1.16;71.86;94048.31;5097759;28;20188;-68
2021/12/08 03:08:34;;;;;;;9.48;8.68;;;;;;;1.15;71.97;94055.69;5097372;28;20204;-68
2021/12/08 03:11:03;;;;;;;10.73;9.82;;;;;;;1.17;72.18;94047.22;5098307;28;20191;-68
2021/12/08 03:13:31;;;;;;;10.35;9.55;;;;;;;1.18;72.40;94051.53;5098217;28;20199;-67
2021/12/08 03:15:58;;;;;;;10.27;9.48;;;;;;;1.22;72.15;94054.41;5098265;28;20195;-67
2021/12/08 03:18:32;;;;;;;10.30;9.50;;;;;;;1.25;72.55;94059.22;5097881;28;20180;-67
2021/12/08 03:20:59;;;;;;;10.10;9.30;;;;;;;1.28;71.73;94056.66;5097676;28;20218;-67
2021/12/08 03:23:33;;;;;;;11.07;10.13;;;;;;;1.32;72.27;94060.34;5098007;28;20204;-67
2021/12/08 03:26:04;;;;;;;10.00;9.20;;;;;;;1.27;71.85;94063.22;5097106;28;20201;-68
2021/12/08 03:28:37;;;;;;;10.65;9.75;;;;;;;1.27;72.04;94060.50;5096964;28;20210;-68
2021/12/08 03:31:08;;;;;;;11.40;10.50;;;;;;;1.27;71.84;94054.25;5097164;28;20283;-68
2021/12/08 03:33:35;;;;;;;10.82;10.02;;;;;;;1.28;71.90;94072.97;5097612;28;20190;-68
2021/12/08 03:36:03;;;;;;;10.95;10.05;;;;;;;1.26;71.71;94075.19;5097307;28;20206;-68
2021/12/08 03:38:30;;;;;;;10.63;9.73;;;;;;;1.26;71.89;94074.38;5097790;28;20184;-67
2021/12/08 03:40:58;;;;;;;11.20;10.20;;;;;;;1.29;71.73;94079.19;5097401;28;20210;-67
2021/12/08 03:43:25;;;;;;;10.93;10.02;;;;;;;1.28;71.61;94083.03;5096960;28;20589;-67
2021/12/08 03:45:55;;;;;;;11.20;10.30;;;;;;;1.26;71.95;94088.78;5096874;28;20192;-67
2021/12/08 03:48:27;;;;;;;11.27;10.38;;;;;;;1.24;72.02;94084.78;5097556;28;20186;-67
2021/12/08 03:50:55;;;;;;;11.68;10.68;;;;;;;1.22;71.78;94087.00;5097653;28;20184;-66
2021/12/08 03:53:22;;;;;;;11.02;10.13;;;;;;;1.20;72.04;94096.28;5097157;28;20247;-69
2021/12/08 03:55:51;;;;;;;10.77;9.98;;;;;;;1.23;71.62;94100.25;5096558;28;20214;-69
2021/12/08 03:58:18;;;;;;;11.40;10.43;;;;;;;1.19;71.66;94099.31;5096417;28;20192;-69
2021/12/08 04:00:46;;;;;;;11.50;10.50;;;;;;;1.15;72.04;94103.78;5096368;28;20659;-69
2021/12/08 04:03:15;;;;;;;11.60;10.60;;;;;;;1.19;71.94;94104.72;5097065;28;20184;-69
2021/12/08 04:05:51;;;;;;;12.32;11.23;;;;;;;1.22;72.10;94104.09;5097469;28;20207;-69
2021/12/08 04:08:20;;;;;;;11.57;10.63;;;;;;;1.23;72.06;94102.19;5096181;28;20249;-69
2021/12/08 04:10:49;;;;;;;11.65;10.75;;;;;;;1.26;72.41;94118.66;5096099;28;20200;-70
2021/12/08 04:13:16;;;;;;;10.82;9.93;;;;;;;1.24;71.48;94114.66;5096778;28;20366;-70
2021/12/08 04:15:43;;;;;;;10.40;9.48;;;;;;;1.20;71.68;94111.78;5097058;28;20195;-70
2021/12/08 04:18:10;;;;;;;10.85;9.85;;;;;;;1.22;71.58;94112.25;5096947;28;20199;-70
2021/12/08 04:20:42;;;;;;;10.90;10.00;;;;;;;1.24;71.93;94115.47;5095994;28;20228;-70
2021/12/08 04:23:10;;;;;;;11.77;10.68;;;;;;;1.27;71.99;94116.72;5096295;28;20208;-70
2021/12/08 04:25:39;;;;;;;11.30;10.38;;;;;;;1.27;72.06;94117.56;5097047;28;20185;-70
2021/12/08 04:28:08;;;;;;;11.43;10.43;;;;;;;1.29;71.95;94123.44;5096049;28;20201;-70
2021/12/08 04:30:38;;;;;;;11.60;10.70;;;;;;;1.22;71.78;94125.03;5095932;28;20205;-70
2021/12/08 04:33:05;;;;;;;11.30;10.30;;;;;;;1.17;72.17;94128.72;5096443;28;20191;-70
2021/12/08 04:35:32;;;;;;;11.48;10.57;;;;;;;1.23;72.38;94130.16;5096169;28;20620;-69
2021/12/08 04:38:06;;;;;;;11.63;10.60;;;;;;;1.24;72.17;94136.41;5096728;28;20195;-70
2021/12/08 04:40:47;;;;;;;11.57;10.57;;;;;;;1.27;72.38;94135.75;5095501;28;20196;-70
2021/12/08 04:43:20;;;;;;;11.23;10.32;;;;;;;1.28;71.93;94132.72;5095372;28;20195;-70
2021/12/08 04:45:57;;;;;;;11.63;10.52;;;;;;;1.30;71.60;94144.06;5095715;28;20200;-70
2021/12/08 04:48:39;;;;;;;12.15;11.15;;;;;;;1.30;72.00;94148.69;5096051;28;20235;-70
2021/12/08 04:51:25;;;;;;;12.00;11.00;;;;;;;1.30;71.93;94148.69;5096626;28;20181;-70
2021/12/08 05:00:13;;;;;;;11.90;10.90;;;;;;;1.35;72.39;94157.50;5095171;28;20231;-70
2021/12/08 05:02:36;;;;;;;12.45;11.35;;;;;;;1.39;71.55;94168.56;5096010;28;20671;-71
2021/12/08 05:05:15;;;;;;;11.82;10.73;;;;;;;1.34;71.43;94166.75;5095174;28;20227;-71
2021/12/08 05:07:55;;;;;;;12.05;11.05;;;;;;;1.36;71.74;94166.47;5095522;28;20196;-70
2021/12/08 05:10:28;;;;;;;12.38;11.38;;;;;;;1.36;71.80;94171.91;5095757;28;20180;-70
2021/12/08 05:12:56;;;;;;;12.57;11.48;;;;;;;1.33;71.55;94175.25;5095073;28;20192;-72
2021/12/08 05:15:25;;;;;;;12.05;11.05;;;;;;;1.32;71.72;94184.50;5095447;28;20196;-70
2021/12/08 05:17:56;;;;;;;12.20;11.10;;;;;;;1.34;71.57;94182.25;5095995;28;20180;-71
2021/12/08 05:20:30;;;;;;;12.85;11.65;;;;;;;1.30;71.41;94189.44;5094342;28;20208;-68
2021/12/08 05:23:01;;;;;;;12.43;11.43;;;;;;;1.28;71.61;94194.41;5094665;28;20191;-67
2021/12/08 05:25:32;;;;;;;13.27;12.18;;;;;;;1.31;71.62;94200.03;5095758;28;20193;-69
2021/12/08 05:28:02;;;;;;;13.48;12.38;;;;;;;1.34;71.63;94193.13;5093723;28;20422;-73
2021/12/08 05:30:32;;;;;;;12.63;11.52;;;;;;;1.33;71.57;94207.84;5095696;28;20200;-72
2021/12/08 05:33:00;;;;;;;12.60;11.60;;;;;;;1.36;71.70;94201.78;5095614;28;20185;-71
2021/12/08 05:35:29;;;;;;;12.43;11.32;;;;;;;1.37;71.94;94197.94;5095667;28;20188;-69
2021/12/08 05:37:56;;;;;;;13.90;12.70;;;;;;;1.36;71.70;94197.16;5094998;28;20203;-71
2021/12/08 05:40:26;;;;;;;12.93;11.93;;;;;;;1.37;71.71;94201.44;5094637;28;20202;-71
2021/12/08 05:42:54;;;;;;;12.98;11.88;;;;;;;1.32;71.39;94214.41;5094595;28;20234;-71
2021/12/08 05:45:22;;;;;;;13.38;12.27;;;;;;;1.34;71.60;94214.88;5095429;28;20188;-71
2021/12/08 05:47:50;;;;;;;14.35;13.15;;;;;;;1.35;72.08;94217.28;5095378;28;20181;-71
2021/12/08 05:50:21;;;;;;;12.25;11.25;;;;;;;1.39;71.43;94225.59;5094810;28;20193;-71
2021/12/08 05:52:49;;;;;;;14.02;12.73;;;;;;;1.42;71.71;94219.53;5094023;28;20228;-71
2021/12/08 05:55:16;;;;;;;13.25;12.13;;;;;;;1.44;71.58;94218.09;5094618;28;20246;-71
2021/12/08 05:57:45;;;;;;;13.57;12.38;;;;;;;1.46;71.55;94223.22;5094781;28;20196;-71
2021/12/08 06:00:17;;;;;;;13.13;12.02;;;;;;;1.48;72.13;94217.47;5095399;28;20195;-71
2021/12/08 06:02:45;;;;;;;14.38;13.05;;;;;;;1.49;72.13;94222.59;5095309;28;20640;-71
2021/12/08 06:05:14;;;;;;;13.68;12.35;;;;;;;1.51;71.30;94236.66;5095583;28;20184;-71
2021/12/08 06:07:42;;;;;;;14.07;12.80;;;;;;;1.52;72.02;94232.81;5094959;28;20222;-71
2021/12/08 06:10:13;;;;;;;14.23;12.93;;;;;;;1.52;71.46;94237.47;5095336;28;20203;-68
2021/12/08 06:12:40;;;;;;;15.00;13.50;;;;;;;1.51;72.04;94239.38;5094265;28;20192;-70
2021/12/08 06:15:08;;;;;;;16.27;14.75;;;;;;;1.54;71.82;94240.66;5093838;28;20624;-70
2021/12/08 06:17:36;;;;;;;15.07;13.77;;;;;;;1.55;71.48;94255.84;5094027;28;20196;-70
2021/12/08 06:20:11;;;;;;;15.20;13.90;;;;;;;1.57;71.28;94249.00;5095160;28;20200;-69
2021/12/08 06:22:38;;;;;;;12.63;11.55;;;;;;;1.53;70.64;94261.63;5094132;28;20211;-69
2021/12/08 06:25:06;;;;;;;13.48;12.30;;;;;;;1.57;71.25;94264.50;5095098;28;20190;-69
2021/12/08 06:27:32;;;;;;;13.30;12.20;;;;;;;1.58;70.88;94255.22;5094386;28;20646;-70
2021/12/08 06:29:59;;;;;;;12.95;11.95;;;;;;;1.55;70.74;94266.72;5094536;28;20203;-70
2021/12/08 06:32:26;;;;;;;11.45;10.55;;;;;;;1.47;70.13;94262.06;5098503;28;20195;-70
2021/12/08 06:34:57;;;;;;;12.13;11.13;;;;;;;1.44;70.59;94266.22;5099452;28;20192;-70
2021/12/08 06:37:29;;;;;;;11.73;10.73;;;;;;;1.48;70.47;94263.66;5098508;28;20200;-70
2021/12/08 06:39:59;;;;;;;11.00;10.05;;;;;;;1.50;69.88;94270.41;5098905;28;20189;-70
2021/12/08 06:42:30;;;;;;;11.88;10.88;;;;;;;1.48;70.26;94274.53;5098841;28;20204;-70
2021/12/08 06:44:57;;;;;;;10.80;9.90;;;;;;;1.44;69.97;94261.56;5098795;28;20188;-70
2021/12/08 06:47:27;;;;;;;11.48;10.48;;;;;;;1.47;70.30;94265.59;5097803;28;20203;-70
2021/12/08 06:49:57;;;;;;;11.00;10.10;;;;;;;1.49;69.91;94265.25;5097834;28;20192;-69
2021/12/08 06:52:26;;;;;;;11.93;10.93;;;;;;;1.48;70.33;94264.47;5097971;28;20228;-70
2021/12/08 06:54:57;;;;;;;11.60;10.52;;;;;;;1.50;70.27;94272.31;5098026;28;20196;-70
2021/12/08 06:57:27;;;;;;;10.88;9.95;;;;;;;1.50;69.54;94266.88;5098824;28;20181;-69
2021/12/08 06:59:58;;;;;;;11.20;10.25;;;;;;;1.50;69.61;94264.16;5098656;28;20195;-69
2021/12/08 07:02:54;;;;;;;10.35;9.45;;;;;;;1.51;69.44;94265.75;5098501;28;20646;-70
2021/12/08 07:05:28;;;;;;;10.60;9.70;;;;;;;1.47;69.59;94267.50;5097385;28;20203;-70
2021/12/08 07:07:57;;;;;;;12.65;11.55;;;;;;;1.48;69.85;94277.25;5097470;28;20532;-69
2021/12/08 07:10:27;;;;;;;10.60;9.80;;;;;;;1.41;69.38;94273.06;5097462;28;20422;-70
2021/12/08 07:12:58;;;;;;;11.18;10.27;;;;;;;1.46;69.65;94265.91;5098333;28;20207;-69
2021/12/08 07:15:28;;;;;;;10.43;9.50;;;;;;;1.43;69.55;94275.50;5097751;28;20223;-69
2021/12/08 07:17:57;;;;;;;10.68;9.77;;;;;;;1.39;69.03;94275.31;5097270;28;20206;-69
2021/12/08 07:20:41;;;;;;;11.57;10.52;;;;;;;1.39;69.62;94280.75;5097885;28;20187;-69
2021/12/08 07:23:09;;;;;;;11.88;10.88;;;;;;;1.46;69.62;94276.78;5097994;28;20226;-69
2021/12/08 07:25:36;;;;;;;12.05;11.05;;;;;;;1.45;69.38;94286.81;5097279;28;20196;-68
2021/12/08 07:28:04;;;;;;;11.98;10.98;;;;;;;1.44;69.33;94293.38;5098058;28;20194;-69
2021/12/08 07:30:36;;;;;;;10.90;10.00;;;;;;;1.49;69.23;94295.16;5096981;28;20224;-69
2021/12/08 07:33:03;;;;;;;11.10;10.25;;;;;;;1.52;69.50;94289.88;5097832;28;20204;-69
2021/12/08 07:35:36;;;;;;;12.25;11.25;;;;;;;1.53;69.57;94296.94;5097603;28;20199;-68
2021/12/08 07:38:05;;;;;;;12.63;11.52;;;;;;;1.51;69.52;94301.88;5097812;28;20555;-68
2021/12/08 07:40:40;;;;;;;11.95;11.05;;;;;;;1.50;69.01;94313.88;5097647;28;20188;-69
2021/12/08 07:43:09;;;;;;;11.32;10.43;;;;;;;1.51;68.89;94306.53;5096701;28;20212;-69
2021/12/08 07:45:38;;;;;;;11.77;10.77;;;;;;;1.40;69.14;94312.22;5097794;28;20199;-69
2021/12/08 07:48:07;;;;;;;10.52;9.63;;;;;;;1.44;69.22;94310.50;5097574;28;20181;-69
2021/12/08 07:50:39;;;;;;;11.23;10.32;;;;;;;1.48;69.15;94318.03;5097364;28;20188;-69
2021/12/08 07:53:07;;;;;;;10.95;10.05;;;;;;;1.52;68.63;94316.28;5097168;28;20236;-69
2021/12/08 07:55:37;;;;;;;11.05;10.15;;;;;;;1.50;69.07;94313.09;5097401;28;20199;-69
2021/12/08 07:58:05;;;;;;;10.60;9.70;;;;;;;1.48;68.44;94313.38;5096435;28;20203;-69
2021/12/08 08:00:36;;;;;;;11.82;10.82;;;;;;;1.54;69.04;94319.50;5096458;28;20188;-69
2021/12/08 08:03:04;;;;;;;11.45;10.45;;;;;;;1.53;68.47;94326.06;5096350;28;20224;-68
2021/12/08 08:05:32;;;;;;;11.38;10.48;;;;;;;1.52;68.33;94332.56;5097302;28;20180;-69
2021/12/08 08:08:03;;;;;;;11.80;10.80;;;;;;;1.52;68.66;94338.00;5097353;28;20196;-69
2021/12/08 08:10:30;;;;;;;12.13;11.13;;;;;;;1.57;68.58;94348.75;5096374;28;20203;-70
2021/12/08 08:13:01;;;;;;;11.10;10.20;;;;;;;1.56;68.52;94341.69;5097180;28;20181;-70
2021/12/08 08:15:31;;;;;;;11.88;10.88;;;;;;;1.56;68.42;94345.25;5096415;28;20197;-70
2021/12/08 08:18:04;;;;;;;11.65;10.65;;;;;;;1.60;68.44;94350.84;5096002;28;20617;-69
2021/12/08 08:20:34;;;;;;;11.07;10.18;;;;;;;1.53;68.48;94350.50;5096106;28;20189;-70
2021/12/08 08:23:03;;;;;;;11.85;10.93;;;;;;;1.52;68.50;94357.03;5096133;28;20212;-70
2021/12/08 08:25:34;;;;;;;12.40;11.23;;;;;;;1.51;69.12;94352.72;5096811;28;20521;-69
2021/12/08 08:28:02;;;;;;;11.52;10.43;;;;;;;1.57;69.63;94352.28;5097200;28;20220;-69
2021/12/08 08:30:34;;;;;;;15.30;13.80;;;;;;;1.64;69.34;94344.47;5095991;28;20196;-70
2021/12/08 08:33:01;;;;;;;12.98;11.85;;;;;;;1.62;69.26;94345.91;5096806;28;20194;-70
2021/12/08 08:35:34;;;;;;;13.10;12.02;;;;;;;1.62;69.45;94338.53;5096135;28;20199;-70
2021/12/08 08:38:06;;;;;;;12.57;11.57;;;;;;;1.63;69.25;94340.16;5096755;28;20184;-70
2021/12/08 08:40:36;;;;;;;13.98;12.77;;;;;;;1.56;69.18;94342.53;5096911;28;20199;-70
2021/12/08 08:43:05;;;;;;;14.25;12.95;;;;;;;1.61;70.03;94347.81;5095559;28;20248;-70
2021/12/08 08:45:34;;;;;;;14.27;13.02;;;;;;;1.63;69.57;94337.44;5096008;28;20612;-70
2021/12/08 08:48:05;;;;;;;14.20;12.90;;;;;;;1.72;69.72;94342.09;5095610;28;20197;-70
2021/12/08 08:50:36;;;;;;;14.75;13.40;;;;;;;1.76;69.00;94341.16;5096717;28;20189;-71
2021/12/08 08:53:05;;;;;;;14.90;13.60;;;;;;;1.80;69.52;94339.41;5096291;28;20228;-71
2021/12/08 08:55:35;;;;;;;13.15;11.95;;;;;;;1.82;69.18;94336.38;5094519;28;20211;-70
2021/12/08 08:58:03;;;;;;;13.05;11.95;;;;;;;1.87;68.24;94334.31;5096433;28;20196;-71
2021/12/08 09:00:33;;;;;;;13.32;12.13;;;;;;;1.91;68.46;94339.91;5096271;28;20193;-70
2021/12/08 09:03:02;;;;;;;14.77;13.48;;;;;;;1.92;68.42;94334.19;5096155;28;20246;-70
2021/12/08 09:05:32;;;;;;;13.50;12.30;;;;;;;1.95;68.21;94330.00;5096431;28;20181;-69
2021/12/08 09:08:01;;;;;;;13.30;12.20;;;;;;;1.97;68.52;94330.50;5095512;28;20203;-69
2021/12/08 09:10:34;;;;;;;13.05;11.95;;;;;;;2.04;68.80;94322.69;5095912;28;20180;-70
2021/12/08 09:13:10;;;;;;;13.13;12.02;;;;;;;2.06;68.25;94322.34;5095513;28;20188;-71
2021/12/08 09:15:39;;;;;;;13.73;12.60;;;;;;;2.09;68.74;94325.22;5095950;28;20207;-70
2021/12/08 09:18:11;;;;;;;14.52;13.23;;;;;;;2.08;68.16;94320.91;5095990;28;20190;-69
2021/12/08 09:20:44;;;;;;;15.32;14.02;;;;;;;2.10;68.59;94310.50;5095796;28;20188;-72
2021/12/08 09:23:16;;;;;;;15.85;14.45;;;;;;;2.13;68.80;94303.63;5094924;28;20216;-69
2021/12/08 09:25:48;;;;;;;15.15;13.85;;;;;;;2.15;69.08;94304.13;5095987;28;20198;-70
2021/12/08 09:28:18;;;;;;;15.38;14.07;;;;;;;2.20;69.37;94300.44;5094821;28;20210;-70
2021/12/08 09:30:49;;;;;;;15.80;14.40;;;;;;;2.21;69.63;94297.41;5095337;28;20188;-69
2021/12/08 09:33:19;;;;;;;14.18;12.95;;;;;;;2.21;69.42;94296.59;5095416;28;20206;-70
2021/12/08 09:35:49;;;;;;;13.02;11.90;;;;;;;2.22;68.94;94293.56;5094937;28;20218;-70
2021/12/08 09:38:19;;;;;;;12.65;11.50;;;;;;;2.23;68.96;94292.44;5095625;28;20185;-69
2021/12/08 09:40:57;;;;;;;12.18;11.18;;;;;;;2.25;68.39;94295.66;5095605;28;20172;-70
2021/12/08 09:43:28;;;;;;;13.52;12.32;;;;;;;2.20;68.85;94292.28;5094991;28;20284;-70
2021/12/08 09:45:57;;;;;;;12.75;11.65;;;;;;;2.27;69.43;94289.91;5095303;28;20539;-70
2021/12/08 09:48:28;;;;;;;11.48;10.50;;;;;;;2.32;69.20;94289.72;5094450;28;20204;-70
2021/12/08 09:50:57;;;;;;;11.43;10.43;;;;;;;2.29;69.37;94285.75;5094579;28;20196;-69
2021/12/08 09:53:26;;;;;;;11.40;10.45;;;;;;;2.34;70.04;94277.41;5095479;28;20225;-70
2021/12/08 09:55:56;;;;;;;11.60;10.60;;;;;;;2.38;69.25;94283.00;5095519;28;20216;-70
2021/12/08 09:58:23;;;;;;;10.73;9.82;;;;;;;2.41;68.93;94280.44;5095216;28;20185;-70
2021/12/08 10:00:55;;;;;;;11.18;10.27;;;;;;;2.45;69.39;94275.16;5094326;28;20196;-70
2021/12/08 10:03:22;;;;;;;11.00;10.10;;;;;;;2.45;68.77;94277.09;5095487;28;20250;-70
2021/12/08 10:05:49;;;;;;;11.35;10.38;;;;;;;2.47;68.97;94281.09;5094618;28;20193;-70
2021/12/08 10:08:16;;;;;;;10.90;10.10;;;;;;;2.45;68.80;94277.09;5094624;28;20270;-70
2021/12/08 10:10:45;;;;;;;11.68;10.65;;;;;;;2.46;69.27;94279.47;5094429;28;20200;-70
2021/12/08 10:13:15;;;;;;;12.93;11.63;;;;;;;2.49;68.73;94278.03;5095383;28;20184;-70
2021/12/08 10:15:42;;;;;;;11.77;10.85;;;;;;;2.50;68.62;94288.59;5094448;28;20204;-69
2021/12/08 10:18:10;;;;;;;12.40;11.40;;;;;;;2.51;69.52;94298.38;5095167;28;20184;-69
2021/12/08 10:20:39;;;;;;;10.65;9.85;;;;;;;2.45;68.56;94296.16;5095155;28;20184;-69
2021/12/08 10:23:13;;;;;;;11.48;10.48;;;;;;;2.48;69.11;94287.34;5094469;28;20215;-69
2021/12/08 10:25:43;;;;;;;11.52;10.63;;;;;;;2.46;68.83;94281.41;5095454;28;20222;-70
2021/12/08 10:28:15;;;;;;;12.10;11.00;;;;;;;2.50;68.88;94276.91;5094566;28;20196;-68
2021/12/08 10:30:46;;;;;;;12.27;11.27;;;;;;;2.47;68.67;94281.09;5094828;28;20214;-69
2021/12/08 10:33:55;;;;;;;12.65;11.55;;;;;;;2.47;69.41;94283.00;5094555;28;20200;-69
2021/12/08 10:36:36;;;;;;;13.07;11.98;;;;;;;2.51;69.16;94275.81;5093921;28;20219;-69
2021/12/08 10:39:07;;;;;;;12.48;11.48;;;;;;;2.62;68.88;94277.09;5094670;28;20523;-69
2021/12/08 10:41:46;;;;;;;12.05;10.90;;;;;;;2.61;69.28;94273.56;5093764;28;20605;-69
2021/12/08 10:44:14;;;;;;;14.23;13.00;;;;;;;2.60;68.68;94273.88;5094871;28;20212;-70
2021/12/08 10:46:41;;;;;;;15.35;13.85;;;;;;;2.61;68.99;94275.47;5093897;28;20195;-69
2021/12/08 10:49:12;;;;;;;15.07;13.77;;;;;;;2.64;68.90;94263.94;5094990;28;20254;-70
2021/12/08 10:54:31;;;;;;;12.27;11.18;;;;;;;2.71;68.43;94268.91;5093928;28;20216;-69
2021/12/08 10:57:00;;;;;;;12.40;11.30;;;;;;;2.68;67.55;94274.97;5093924;28;20196;-69
2021/12/08 10:59:49;;;;;;;12.73;11.60;;;;;;;2.67;68.02;94278.84;5093847;28;20195;-70
2021/12/08 11:02:39;;;;;;;13.02;11.90;;;;;;;2.67;68.44;94268.75;5093712;28;20208;-69
2021/12/08 11:05:08;;;;;;;13.40;12.20;;;;;;;2.69;67.94;94261.06;5094463;28;20187;-69
2021/12/08 11:07:34;;;;;;;13.02;11.82;;;;;;;2.74;68.66;94263.59;5094901;28;20185;-69
2021/12/08 11:10:19;;;;;;;12.93;11.88;;;;;;;2.77;67.71;94267.63;5094455;28;20180;-69
2021/12/08 11:12:46;;;;;;;12.20;11.20;;;;;;;2.76;67.70;94269.53;5093825;28;20189;-69
2021/12/08 11:15:20;;;;;;;12.10;11.10;;;;;;;2.79;67.52;94274.31;5093457;28;20200;-69
2021/12/08 11:17:49;;;;;;;12.48;11.48;;;;;;;2.81;68.10;94276.75;5095387;28;20619;-69
2021/12/08 11:20:18;;;;;;;11.93;10.93;;;;;;;2.83;68.35;94278.03;5097272;28;20188;-68
2021/12/08 11:22:48;;;;;;;11.30;10.40;;;;;;;2.86;67.46;94271.09;5097820;28;20216;-69
2021/12/08 11:25:23;;;;;;;12.63;11.63;;;;;;;2.93;67.34;94278.78;5097132;28;20207;-69
2021/12/08 11:27:50;;;;;;;13.13;11.93;;;;;;;2.98;67.22;94273.16;5098088;28;20212;-69
2021/12/08 11:30:19;;;;;;;12.13;11.10;;;;;;;3.46;67.17;94278.31;5097232;28;20210;-69
2021/12/08 11:32:46;;;;;;;12.43;11.43;;;;;;;3.67;65.92;94269.38;5097523;28;20199;-69
2021/12/08 11:35:20;;;;;;;11.63;10.70;;;;;;;3.88;65.15;94272.97;5097576;28;20196;-69
2021/12/08 11:37:59;;;;;;;11.98;11.07;;;;;;;3.71;63.92;94276.59;5098162;28;20188;-69
2021/12/08 11:40:26;;;;;;;11.38;10.48;;;;;;;3.61;65.21;94272.31;5096941;28;20188;-69
2021/12/08 11:42:53;;;;;;;12.23;11.23;;;;;;;3.45;65.07;94276.72;5097766;28;20218;-69
2021/12/08 11:45:21;;;;;;;12.60;11.57;;;;;;;3.33;65.35;94285.56;5097598;28;20180;-69
2021/12/08 11:47:48;;;;;;;14.43;13.23;;;;;;;3.21;66.29;94282.72;5097093;28;20295;-69
2021/12/08 11:50:16;;;;;;;15.02;13.80;;;;;;;3.23;66.57;94279.66;5097691;28;20180;-69
2021/12/08 11:52:45;;;;;;;14.60;13.40;;;;;;;3.13;66.49;94284.34;5096262;28;20246;-69
2021/12/08 11:55:16;;;;;;;13.48;12.43;;;;;;;3.09;66.58;94290.78;5097628;28;20524;-69
2021/12/08 11:57:46;;;;;;;12.98;11.93;;;;;;;3.09;66.79;94283.41;5097681;28;20196;-69
2021/12/08 12:00:15;;;;;;;12.05;11.05;;;;;;;3.03;66.60;94290.16;5097430;28;20212;-69
2021/12/08 12:02:46;;;;;;;12.52;11.43;;;;;;;3.03;66.86;94287.41;5097534;28;20188;-69
2021/12/08 12:05:16;;;;;;;11.90;10.98;;;;;;;3.01;66.71;94289.66;5096961;28;20218;-69
2021/12/08 12:07:46;;;;;;;11.55;10.65;;;;;;;2.97;66.81;94285.97;5097534;28;20177;-69
2021/12/08 12:10:15;;;;;;;11.68;10.68;;;;;;;2.95;66.31;94292.91;5096319;28;20644;-69